Time;durP1;ratioP1;P1;durP2;ratioP2;P2;SDS_P1;SDS_P2;PMS_P1;PMS_P2;Temp;Humidity;BMP_temperature;BMP_pressure;BME280_temperature;BME280_humidity;BME280_pressure;Samples;Min_cycle;Max_cycle;Signal;HPM_P1;HPM_P2
2023/12/27 00:02:25;;;;;;;1999.90;999.90;;;5.00;99.90;;;;;;5032647;28;20189;-73
2023/12/27 00:04:50;;;;;;;1999.90;999.90;;;5.00;99.90;;;;;;5032694;28;20471;-73
2023/12/27 00:07:16;;;;;;;1999.90;999.90;;;5.00;99.90;;;;;;5032699;28;20165;-73
2023/12/27 00:09:41;;;;;;;1999.90;999.90;;;5.00;99.90;;;;;;5032639;28;20247;-73
2023/12/27 00:12:07;;;;;;;1999.90;999.90;;;5.00;99.90;;;;;;5032269;28;20567;-73
2023/12/27 00:18:27;;;;;;;1999.90;999.90;;;4.90;99.90;;;;;;5058444;28;20197;-69
2023/12/27 00:21:57;;;;;;;1999.90;999.90;;;4.90;99.90;;;;;;5008562;28;20437;-70
2023/12/27 00:25:25;;;;;;;1999.90;999.90;;;5.00;99.90;;;;;;4921251;29;20422;-69
2023/12/27 00:38:20;;;;;;;1999.90;999.90;;;4.70;99.90;;;;;;4953743;28;20667;-70
2023/12/27 00:41:06;;;;;;;1999.90;999.90;;;4.70;99.90;;;;;;4971253;28;20450;-70
2023/12/27 00:44:26;;;;;;;1999.90;999.90;;;4.80;99.90;;;;;;4958688;28;20459;-69
2023/12/27 00:46:52;;;;;;;1999.90;999.90;;;4.70;99.90;;;;;;4982300;28;20177;-74
2023/12/27 00:49:18;;;;;;;1999.90;999.90;;;4.70;99.90;;;;;;5018210;28;20973;-70
2023/12/27 00:51:46;;;;;;;1999.90;999.90;;;4.80;99.90;;;;;;5031844;28;20263;-71
2023/12/27 00:54:12;;;;;;;1999.90;999.90;;;4.70;99.90;;;;;;5032012;28;20192;-71
2023/12/27 00:56:38;;;;;;;1999.90;999.90;;;4.70;99.90;;;;;;5031938;28;20564;-71
2023/12/27 00:59:08;;;;;;;1999.90;999.90;;;4.60;99.90;;;;;;5032055;28;20160;-71
2023/12/27 01:01:34;;;;;;;1999.90;999.90;;;4.70;99.90;;;;;;5031667;28;20427;-71
2023/12/27 01:03:59;;;;;;;1999.90;999.90;;;4.70;99.90;;;;;;5031915;28;20175;-71
2023/12/27 01:06:25;;;;;;;1999.90;999.90;;;4.80;99.90;;;;;;5031848;28;20682;-71
2023/12/27 01:08:50;;;;;;;1999.90;999.90;;;4.80;99.90;;;;;;5031909;28;20214;-74
2023/12/27 01:11:16;;;;;;;1999.90;999.90;;;4.80;99.90;;;;;;5031627;28;20191;-71
2023/12/27 01:13:42;;;;;;;1999.90;999.90;;;4.90;99.90;;;;;;5031836;28;20219;-71
2023/12/27 01:16:07;;;;;;;1999.90;999.90;;;4.90;99.90;;;;;;5031817;28;20192;-71
2023/12/27 01:18:33;;;;;;;1999.90;999.90;;;4.90;99.90;;;;;;5031776;28;20176;-73
2023/12/27 01:20:59;;;;;;;1999.90;999.90;;;5.40;99.90;;;;;;5031438;28;20169;-73
2023/12/27 01:23:25;;;;;;;1999.90;999.90;;;5.00;99.90;;;;;;5031691;28;20419;-74
2023/12/27 01:25:50;;;;;;;1999.90;999.90;;;5.10;99.90;;;;;;5031694;28;20891;-71
2023/12/27 01:28:16;;;;;;;1999.90;999.90;;;5.10;99.90;;;;;;5031762;28;20229;-71
2023/12/27 01:30:41;;;;;;;1999.90;999.90;;;5.10;99.90;;;;;;5031459;28;20168;-71
2023/12/27 01:33:07;;;;;;;1999.90;999.90;;;5.20;99.90;;;;;;5031491;28;20184;-72
2023/12/27 01:35:33;;;;;;;1999.90;999.90;;;5.20;99.90;;;;;;5031575;28;20289;-71
2023/12/27 01:37:58;;;;;;;1999.90;999.90;;;5.20;99.90;;;;;;5031631;28;20783;-71
2023/12/27 01:40:24;;;;;;;1999.90;999.90;;;5.30;99.90;;;;;;5031552;28;20545;-71
2023/12/27 01:42:49;;;;;;;1999.90;999.90;;;5.40;99.90;;;;;;5031314;28;20359;-72
2023/12/27 01:45:15;;;;;;;1999.90;999.90;;;5.40;99.90;;;;;;5031621;28;20223;-71
2023/12/27 01:47:42;;;;;;;1999.90;999.90;;;5.40;99.90;;;;;;5031612;28;20211;-71
2023/12/27 01:50:09;;;;;;;1999.90;999.90;;;5.30;99.90;;;;;;5031458;28;20782;-73
2023/12/27 01:52:36;;;;;;;1999.90;999.90;;;5.30;99.90;;;;;;5031349;28;20526;-71
2023/12/27 01:55:01;;;;;;;1999.90;999.90;;;5.20;99.90;;;;;;5031235;28;20774;-73
2023/12/27 01:57:27;;;;;;;1999.90;999.90;;;5.20;99.90;;;;;;5031420;28;20402;-71
2023/12/27 01:59:53;;;;;;;1999.90;999.90;;;5.20;99.90;;;;;;5031526;28;21028;-71
2023/12/27 02:02:19;;;;;;;1999.90;999.90;;;5.20;99.90;;;;;;5031127;28;20940;-71
2023/12/27 02:04:44;;;;;;;1999.90;999.90;;;5.20;99.90;;;;;;5030258;28;20251;-71
2023/12/27 02:07:11;;;;;;;1999.90;999.90;;;5.20;99.90;;;;;;5031401;28;20192;-72
2023/12/27 02:09:37;;;;;;;1999.90;999.90;;;5.20;99.90;;;;;;5031300;28;20173;-71
2023/12/27 02:12:03;;;;;;;1999.90;999.90;;;5.20;99.90;;;;;;5031071;28;20427;-71
2023/12/27 02:14:28;;;;;;;1999.90;999.90;;;5.20;99.90;;;;;;5033962;28;20403;-71
2023/12/27 02:16:54;;;;;;;1999.90;999.90;;;4.90;99.90;;;;;;5034822;28;20193;-73
2023/12/27 02:19:21;;;;;;;1999.90;999.90;;;5.20;99.90;;;;;;5034776;28;20216;-73
2023/12/27 02:21:49;;;;;;;1999.90;999.90;;;5.10;99.90;;;;;;5034370;28;20445;-73
2023/12/27 02:24:19;;;;;;;1999.90;999.90;;;5.10;99.90;;;;;;5034557;28;20407;-73
2023/12/27 02:26:45;;;;;;;1999.90;999.90;;;5.00;99.90;;;;;;5034567;28;20490;-73
2023/12/27 02:29:11;;;;;;;1999.90;999.90;;;5.00;99.90;;;;;;5034538;28;20439;-73
2023/12/27 02:31:36;;;;;;;1999.90;999.90;;;5.00;99.90;;;;;;5034301;28;20447;-73
2023/12/27 02:34:02;;;;;;;1999.90;999.90;;;4.90;99.90;;;;;;5034219;28;20228;-73
2023/12/27 02:36:27;;;;;;;1999.90;999.90;;;4.90;99.90;;;;;;5034572;28;20258;-73
2023/12/27 02:38:53;;;;;;;1999.90;999.90;;;4.80;99.90;;;;;;5034355;28;20164;-73
2023/12/27 02:41:19;;;;;;;1999.90;999.90;;;4.80;99.90;;;;;;5034111;28;20214;-73
2023/12/27 02:43:44;;;;;;;1999.90;999.90;;;4.80;99.90;;;;;;5034243;28;20168;-73
2023/12/27 02:46:10;;;;;;;1999.90;999.90;;;4.70;99.90;;;;;;5034459;28;20648;-73
2023/12/27 02:48:35;;;;;;;1999.90;999.90;;;4.80;99.90;;;;;;5034236;28;20172;-73
2023/12/27 02:51:01;;;;;;;1999.90;999.90;;;4.80;99.90;;;;;;5034046;28;20225;-73
2023/12/27 02:53:26;;;;;;;1999.90;999.90;;;4.70;99.90;;;;;;5034065;28;20173;-73
2023/12/27 02:55:52;;;;;;;1999.90;999.90;;;4.70;99.90;;;;;;5034033;28;20192;-73
2023/12/27 02:58:17;;;;;;;1999.90;999.90;;;4.60;99.90;;;;;;5034061;28;20164;-73
2023/12/27 03:00:46;;;;;;;1999.90;999.90;;;4.70;99.90;;;;;;5033761;28;20625;-73
2023/12/27 03:03:12;;;;;;;1999.90;999.90;;;4.60;99.90;;;;;;5033696;28;20176;-73
2023/12/27 03:05:37;;;;;;;1999.90;999.90;;;4.60;99.90;;;;;;5033987;28;20407;-73
2023/12/27 03:08:03;;;;;;;1999.90;999.90;;;4.60;99.90;;;;;;5033791;28;20434;-73
2023/12/27 03:10:29;;;;;;;1999.90;999.90;;;4.50;99.90;;;;;;5033855;28;20579;-73
2023/12/27 03:12:55;;;;;;;1999.90;999.90;;;6.70;99.90;;;;;;5033933;28;20430;-73
2023/12/27 03:15:20;;;;;;;1999.90;999.90;;;4.50;99.90;;;;;;5033643;28;20200;-73
2023/12/27 03:17:46;;;;;;;1999.90;999.90;;;4.60;99.90;;;;;;5033625;28;20165;-73
2023/12/27 03:20:12;;;;;;;1999.90;999.90;;;4.60;99.90;;;;;;5033494;28;20169;-73
2023/12/27 03:22:37;;;;;;;1999.90;999.90;;;4.60;99.90;;;;;;5033377;28;20635;-73
2023/12/27 03:25:03;;;;;;;1999.90;999.90;;;4.60;99.90;;;;;;5032434;28;20490;-73
2023/12/27 03:27:29;;;;;;;1999.90;999.90;;;4.70;99.90;;;;;;5033553;28;20172;-73
2023/12/27 03:29:55;;;;;;;1999.90;999.90;;;4.80;99.90;;;;;;5033436;28;20207;-73
2023/12/27 03:32:22;;;;;;;1999.90;999.90;;;4.80;99.90;;;;;;5032874;28;20869;-73
2023/12/27 03:34:48;;;;;;;1999.90;999.90;;;4.80;99.90;;;;;;5033408;28;20251;-73
2023/12/27 03:37:15;;;;;;;1999.90;999.90;;;5.00;99.90;;;;;;5033166;28;20538;-73
2023/12/27 03:39:43;;;;;;;1999.90;999.90;;;5.20;99.90;;;;;;5033271;28;20219;-73
2023/12/27 03:42:09;;;;;;;1999.90;999.90;;;5.30;99.90;;;;;;5032903;28;20430;-73
2023/12/27 03:44:35;;;;;;;1999.90;999.90;;;5.40;99.90;;;;;;5033196;28;20402;-73
2023/12/27 03:47:00;;;;;;;1999.90;999.90;;;5.40;99.90;;;;;;5033056;28;21171;-73
2023/12/27 03:49:26;;;;;;;1999.90;999.90;;;5.50;99.90;;;;;;5033081;28;20161;-73
2023/12/27 03:51:52;;;;;;;1999.90;999.90;;;5.50;99.90;;;;;;5032695;28;20196;-73
2023/12/27 03:54:17;;;;;;;1999.90;999.90;;;5.50;99.90;;;;;;5032991;28;20173;-73
2023/12/27 03:56:44;;;;;;;1999.90;999.90;;;5.50;99.90;;;;;;5032892;28;20895;-73
2023/12/27 03:59:10;;;;;;;1999.90;999.90;;;5.60;99.90;;;;;;5032810;28;20919;-73
2023/12/27 04:01:36;;;;;;;1999.90;999.90;;;5.60;99.90;;;;;;5032515;28;20428;-73
2023/12/27 04:04:02;;;;;;;1999.90;999.90;;;5.60;99.90;;;;;;5032688;28;20184;-73
2023/12/27 04:06:28;;;;;;;1999.90;999.90;;;5.70;99.90;;;;;;5032685;28;20485;-73
2023/12/27 04:08:53;;;;;;;1999.90;999.90;;;5.80;99.90;;;;;;5032703;28;20193;-73
2023/12/27 04:11:19;;;;;;;1999.90;999.90;;;5.80;99.90;;;;;;5032412;28;20601;-73
2023/12/27 04:13:45;;;;;;;1999.90;999.90;;;5.90;99.90;;;;;;5032870;28;20196;-73
2023/12/27 04:16:10;;;;;;;1999.90;999.90;;;5.90;99.90;;;;;;5032460;28;20249;-73
2023/12/27 04:18:36;;;;;;;1999.90;999.90;;;5.90;99.90;;;;;;5032528;28;20319;-73
2023/12/27 04:21:02;;;;;;;1999.90;999.90;;;5.70;99.90;;;;;;5032301;28;20172;-73
2023/12/27 04:23:27;;;;;;;1999.90;999.90;;;6.00;99.90;;;;;;5032433;28;20595;-71
2023/12/27 04:25:53;;;;;;;1999.90;999.90;;;6.00;99.90;;;;;;5032499;28;20176;-72
2023/12/27 04:28:19;;;;;;;1999.90;999.90;;;5.90;99.90;;;;;;5032443;28;20706;-71
2023/12/27 04:30:44;;;;;;;1999.90;999.90;;;6.10;99.90;;;;;;5032203;28;20168;-72
2023/12/27 04:33:10;;;;;;;1999.90;999.90;;;6.00;99.90;;;;;;5032155;28;20188;-71
2023/12/27 04:35:35;;;;;;;1999.90;999.90;;;6.00;99.90;;;;;;5032091;28;20220;-71
2023/12/27 04:38:01;;;;;;;1999.90;999.90;;;6.00;99.90;;;;;;5032252;28;20259;-71
2023/12/27 04:40:27;;;;;;;1999.90;999.90;;;6.00;99.90;;;;;;5032341;28;20156;-72
2023/12/27 04:42:53;;;;;;;1999.90;999.90;;;6.00;99.90;;;;;;5031946;28;20184;-74
2023/12/27 04:45:18;;;;;;;1999.90;999.90;;;6.00;99.90;;;;;;5032129;28;20255;-74
2023/12/27 04:47:44;;;;;;;1999.90;999.90;;;6.00;99.90;;;;;;5032170;28;20553;-71
2023/12/27 04:50:09;;;;;;;1999.90;999.90;;;6.10;99.90;;;;;;5032138;28;20300;-71
2023/12/27 04:52:35;;;;;;;1999.90;999.90;;;6.10;99.90;;;;;;5031909;28;20253;-71
2023/12/27 04:55:01;;;;;;;1999.90;999.90;;;6.00;99.90;;;;;;5032004;28;20238;-73
2023/12/27 04:57:26;;;;;;;1999.90;999.90;;;6.20;99.90;;;;;;5032047;28;20176;-71
2023/12/27 04:59:52;;;;;;;1999.90;999.90;;;6.20;99.90;;;;;;5032023;28;20834;-71
2023/12/27 05:02:17;;;;;;;1999.90;999.90;;;6.20;99.90;;;;;;5031661;28;20270;-72
2023/12/27 05:04:43;;;;;;;1999.90;999.90;;;6.20;99.90;;;;;;5031909;28;20160;-72
2023/12/27 05:07:09;;;;;;;1999.90;999.90;;;6.10;99.90;;;;;;5031860;28;20200;-74
2023/12/27 05:09:34;;;;;;;1999.90;999.90;;;6.30;99.90;;;;;;5031837;28;20175;-73
2023/12/27 05:12:01;;;;;;;1999.90;999.90;;;6.40;99.90;;;;;;5031498;28;20484;-73
2023/12/27 05:14:26;;;;;;;1999.90;999.90;;;6.30;99.90;;;;;;5031625;28;20258;-73
2023/12/27 05:16:55;;;;;;;1999.90;999.90;;;6.40;99.90;;;;;;5031702;28;20550;-73
2023/12/27 05:19:20;;;;;;;1999.90;999.90;;;6.50;99.90;;;;;;5031824;28;20168;-73
2023/12/27 05:21:46;;;;;;;1999.90;999.90;;;6.50;99.90;;;;;;5031484;28;20421;-73
2023/12/27 05:24:12;;;;;;;1999.90;999.90;;;6.40;99.90;;;;;;5031614;28;20403;-73
2023/12/27 05:26:37;;;;;;;1999.90;999.90;;;6.50;99.90;;;;;;5031672;28;20659;-73
2023/12/27 05:29:03;;;;;;;1999.90;999.90;;;6.50;99.90;;;;;;5031638;28;20247;-73
2023/12/27 05:31:29;;;;;;;1999.90;999.90;;;6.60;99.90;;;;;;5031596;28;20199;-73
2023/12/27 05:33:55;;;;;;;1999.90;999.90;;;6.60;99.90;;;;;;5031438;28;20430;-73
2023/12/27 05:36:21;;;;;;;1999.90;999.90;;;6.80;99.90;;;;;;5031492;28;20477;-73
2023/12/27 05:38:47;;;;;;;1999.90;999.90;;;6.60;99.90;;;;;;5031642;28;20407;-73
2023/12/27 05:41:13;;;;;;;1999.90;999.90;;;6.70;99.90;;;;;;5031392;28;20712;-73
2023/12/27 05:43:38;;;;;;;1999.90;999.90;;;6.60;99.90;;;;;;5031457;28;20486;-73
2023/12/27 05:46:04;;;;;;;1999.90;999.90;;;6.70;99.90;;;;;;5031509;28;20522;-73
2023/12/27 05:48:30;;;;;;;1999.90;999.90;;;6.50;99.90;;;;;;5032755;28;20184;-73
2023/12/27 05:50:56;;;;;;;1999.90;999.90;;;6.50;99.90;;;;;;5035211;28;20570;-73
2023/12/27 05:53:22;;;;;;;1999.90;999.90;;;6.70;99.90;;;;;;5035198;28;20422;-73
2023/12/27 05:55:47;;;;;;;1999.90;999.90;;;6.70;99.90;;;;;;5035138;28;20192;-73
2023/12/27 05:58:13;;;;;;;1999.90;999.90;;;6.60;99.90;;;;;;5035144;28;20713;-73
2023/12/27 06:00:38;;;;;;;1999.90;999.90;;;6.60;99.90;;;;;;5034916;28;20531;-73
2023/12/27 06:03:04;;;;;;;1999.90;999.90;;;6.80;99.90;;;;;;5034887;28;20191;-73
2023/12/27 06:05:30;;;;;;;1999.90;999.90;;;6.70;99.90;;;;;;5035075;28;20664;-73
2023/12/27 06:07:55;;;;;;;1999.90;999.90;;;6.70;99.90;;;;;;5035011;28;20175;-73
2023/12/27 06:10:21;;;;;;;1999.90;999.90;;;6.60;99.90;;;;;;5034955;28;20173;-73
2023/12/27 06:12:47;;;;;;;1999.90;999.90;;;7.00;99.90;;;;;;5034615;28;20279;-73
2023/12/27 06:15:13;;;;;;;1999.90;999.90;;;6.70;99.90;;;;;;5034967;28;20173;-71
2023/12/27 06:17:39;;;;;;;1999.90;999.90;;;6.70;99.90;;;;;;5034878;28;20399;-72
2023/12/27 06:20:06;;;;;;;1999.90;999.90;;;6.80;99.90;;;;;;5034801;28;20165;-73
2023/12/27 06:22:32;;;;;;;1999.90;999.90;;;6.80;99.90;;;;;;5034485;28;20226;-74
2023/12/27 06:24:58;;;;;;;1999.90;999.90;;;7.20;99.90;;;;;;5034728;28;20407;-71
2023/12/27 06:27:23;;;;;;;1999.90;999.90;;;6.90;99.90;;;;;;5034654;28;20662;-71
2023/12/27 06:29:49;;;;;;;1999.90;999.90;;;6.90;99.90;;;;;;5034645;28;20169;-71
2023/12/27 06:32:15;;;;;;;1999.90;999.90;;;6.90;99.90;;;;;;5034309;28;20254;-72
2023/12/27 06:34:41;;;;;;;1999.90;999.90;;;6.90;99.90;;;;;;5034521;28;20176;-71
2023/12/27 06:37:06;;;;;;;1999.90;999.90;;;7.00;99.90;;;;;;5034375;28;20455;-74
2023/12/27 06:39:32;;;;;;;1999.90;999.90;;;7.00;99.90;;;;;;5034505;28;20164;-71
2023/12/27 06:41:58;;;;;;;1999.90;999.90;;;7.00;99.90;;;;;;5034149;28;20635;-71
2023/12/27 06:44:23;;;;;;;1999.90;999.90;;;7.20;99.90;;;;;;5034274;28;20251;-71
2023/12/27 06:46:49;;;;;;;1999.90;999.90;;;6.90;99.90;;;;;;5034299;28;20635;-72
2023/12/27 06:49:15;;;;;;;1999.90;999.90;;;7.00;99.90;;;;;;5034453;28;20275;-72
2023/12/27 06:51:40;;;;;;;1999.90;999.90;;;7.20;99.90;;;;;;5034057;28;20533;-74
2023/12/27 06:54:06;;;;;;;1999.90;999.90;;;6.70;99.90;;;;;;5034132;28;20176;-72
2023/12/27 06:56:31;;;;;;;1999.90;999.90;;;7.00;99.90;;;;;;5034112;28;20216;-71
2023/12/27 06:58:57;;;;;;;1999.90;999.90;;;7.00;99.90;;;;;;5033935;28;20161;-72
2023/12/27 07:01:24;;;;;;;1999.90;999.90;;;7.00;99.90;;;;;;5033749;28;20184;-74
2023/12/27 07:03:50;;;;;;;1999.90;999.90;;;7.00;99.90;;;;;;5033909;28;20161;-71
2023/12/27 07:06:16;;;;;;;1999.90;999.90;;;7.00;99.90;;;;;;5033947;28;20476;-71
2023/12/27 07:08:43;;;;;;;1999.90;999.90;;;7.10;99.90;;;;;;5033907;28;20221;-71
2023/12/27 07:11:15;;;;;;;1999.90;999.90;;;7.30;99.90;;;;;;5033797;28;20223;-71
2023/12/27 07:13:42;;;;;;;1999.90;999.90;;;7.00;99.90;;;;;;5033775;28;20461;-71
2023/12/27 07:16:07;;;;;;;1999.90;999.90;;;7.10;99.90;;;;;;5033675;28;20461;-72
2023/12/27 07:18:33;;;;;;;1999.90;999.90;;;7.00;99.90;;;;;;5033682;28;20902;-74
2023/12/27 07:20:59;;;;;;;1999.90;999.90;;;7.00;99.90;;;;;;5033486;28;20208;-71
2023/12/27 07:23:24;;;;;;;1999.90;999.90;;;7.20;99.90;;;;;;5033462;28;20166;-71
2023/12/27 07:25:50;;;;;;;1999.90;999.90;;;7.20;99.90;;;;;;5033601;28;20179;-71
2023/12/27 07:28:15;;;;;;;1999.90;999.90;;;7.10;99.90;;;;;;5033567;28;20299;-73
2023/12/27 07:30:42;;;;;;;1999.90;999.90;;;7.20;99.90;;;;;;5033260;28;20635;-71
2023/12/27 07:33:07;;;;;;;1999.90;999.90;;;7.20;99.90;;;;;;5033133;28;20212;-74
2023/12/27 07:35:33;;;;;;;1999.90;999.90;;;7.10;99.90;;;;;;5033295;28;20447;-71
2023/12/27 07:38:00;;;;;;;1999.90;999.90;;;7.20;99.90;;;;;;5033473;28;20199;-71
2023/12/27 07:40:27;;;;;;;1999.90;999.90;;;7.30;99.90;;;;;;5033484;28;20164;-74
2023/12/27 07:42:52;;;;;;;1999.90;999.90;;;7.30;99.90;;;;;;5032980;28;20419;-72
2023/12/27 07:45:20;;;;;;;1999.90;999.90;;;7.20;99.90;;;;;;5033155;28;20403;-72
2023/12/27 07:47:45;;;;;;;1999.90;999.90;;;7.50;99.90;;;;;;5033219;28;20176;-73
2023/12/27 07:50:12;;;;;;;1999.90;999.90;;;7.30;99.90;;;;;;5033221;28;20407;-72
2023/12/27 07:52:38;;;;;;;1999.90;999.90;;;7.40;99.90;;;;;;5032814;28;20226;-71
2023/12/27 07:55:04;;;;;;;1999.90;999.90;;;7.60;99.90;;;;;;5033114;28;20407;-71
2023/12/27 07:57:29;;;;;;;1999.90;999.90;;;7.40;99.90;;;;;;5033324;28;20487;-72
2023/12/27 07:59:57;;;;;;;1999.90;999.90;;;7.40;99.90;;;;;;5033700;28;20450;-72
2023/12/27 08:02:23;;;;;;;1999.90;999.90;;;7.10;99.90;;;;;;5033296;28;20553;-72
2023/12/27 08:04:49;;;;;;;1999.90;999.90;;;7.40;99.90;;;;;;5033306;28;20773;-72
2023/12/27 08:07:15;;;;;;;1999.90;999.90;;;7.70;99.90;;;;;;5033435;28;20406;-72
2023/12/27 08:09:40;;;;;;;1999.90;999.90;;;7.90;99.90;;;;;;5033692;28;20535;-72
2023/12/27 08:12:06;;;;;;;1999.90;999.90;;;7.60;99.90;;;;;;5032645;28;20184;-74
2023/12/27 08:14:32;;;;;;;1999.90;999.90;;;7.60;99.90;;;;;;5033411;28;20674;-75
2023/12/27 08:16:58;;;;;;;1999.90;999.90;;;7.70;99.90;;;;;;5033338;28;20459;-71
2023/12/27 08:19:23;;;;;;;1999.90;999.90;;;7.70;99.90;;;;;;5033154;28;20171;-72
2023/12/27 08:21:49;;;;;;;1999.90;999.90;;;7.40;99.90;;;;;;5032981;28;20193;-72
2023/12/27 08:24:14;;;;;;;1999.90;999.90;;;7.70;99.90;;;;;;5031300;28;20181;-72
2023/12/27 08:26:40;;;;;;;1999.90;999.90;;;7.80;99.90;;;;;;5032841;28;20188;-74
2023/12/27 08:29:06;;;;;;;1999.90;999.90;;;7.80;99.90;;;;;;5032518;28;20611;-71
2023/12/27 08:31:31;;;;;;;1999.90;999.90;;;7.70;99.90;;;;;;5032169;28;20188;-71
2023/12/27 08:33:59;;;;;;;1999.90;999.90;;;7.70;99.90;;;;;;5032303;28;20561;-71
2023/12/27 08:36:29;;;;;;;1999.90;999.90;;;7.90;99.90;;;;;;5032229;28;20185;-73
2023/12/27 08:38:55;;;;;;;1999.90;999.90;;;7.90;99.90;;;;;;5032389;28;20435;-72
2023/12/27 08:41:22;;;;;;;1999.90;999.90;;;8.00;99.90;;;;;;5031971;28;20462;-74
2023/12/27 08:43:47;;;;;;;1999.90;999.90;;;7.90;99.90;;;;;;5032014;28;20176;-71
2023/12/27 08:46:14;;;;;;;1999.90;999.90;;;8.10;99.90;;;;;;5032185;28;20783;-72
2023/12/27 08:48:40;;;;;;;1999.90;999.90;;;8.00;99.90;;;;;;5032209;28;20644;-71
2023/12/27 08:51:06;;;;;;;1999.90;999.90;;;7.90;99.90;;;;;;5031885;28;20573;-72
2023/12/27 08:53:31;;;;;;;1999.90;999.90;;;8.20;99.90;;;;;;5032141;28;20172;-72
2023/12/27 08:55:57;;;;;;;1999.90;999.90;;;8.10;99.90;;;;;;5032061;28;20247;-72
2023/12/27 08:58:23;;;;;;;1999.90;999.90;;;8.20;99.90;;;;;;5031957;28;20168;-74
2023/12/27 09:00:49;;;;;;;1999.90;999.90;;;8.30;99.90;;;;;;5031704;28;20196;-71
2023/12/27 09:03:14;;;;;;;1999.90;999.90;;;8.20;99.90;;;;;;5031948;28;20249;-71
2023/12/27 09:05:40;;;;;;;1999.90;999.90;;;8.30;99.90;;;;;;5031843;28;20174;-71
2023/12/27 09:08:05;;;;;;;1999.90;999.90;;;8.40;99.90;;;;;;5031979;28;20633;-71
2023/12/27 09:10:31;;;;;;;1999.90;999.90;;;8.40;99.90;;;;;;5031942;28;20168;-73
2023/12/27 09:12:57;;;;;;;1999.90;999.90;;;8.40;99.90;;;;;;5031586;28;20191;-72
2023/12/27 09:15:22;;;;;;;1999.90;999.90;;;8.40;99.90;;;;;;5031601;28;20226;-72
2023/12/27 09:17:48;;;;;;;1999.90;999.90;;;8.50;99.90;;;;;;5031772;28;20169;-72
2023/12/27 09:20:14;;;;;;;1999.90;999.90;;;9.00;99.90;;;;;;5031832;28;20161;-71
2023/12/27 09:22:40;;;;;;;1999.90;999.90;;;8.60;99.90;;;;;;5031423;28;20434;-71
2023/12/27 09:25:05;;;;;;;1999.90;999.90;;;8.70;99.90;;;;;;5035774;28;20403;-75
2023/12/27 09:27:31;;;;;;;1999.90;999.90;;;8.80;99.90;;;;;;5035774;28;20515;-71
2023/12/27 09:29:57;;;;;;;1999.90;999.90;;;8.80;99.90;;;;;;5035656;28;20326;-71
2023/12/27 09:32:22;;;;;;;1999.90;999.90;;;8.80;99.90;;;;;;5035256;28;20319;-72
2023/12/27 09:34:48;;;;;;;1999.90;999.90;;;8.80;99.90;;;;;;5035569;28;20244;-72
2023/12/27 09:37:13;;;;;;;1999.90;999.90;;;8.90;99.90;;;;;;5035532;28;20222;-74
2023/12/27 09:39:39;;;;;;;1999.90;999.90;;;8.80;99.90;;;;;;5035555;28;20169;-71
2023/12/27 09:42:05;;;;;;;1999.90;999.90;;;8.80;99.90;;;;;;5035215;28;20209;-72
2023/12/27 09:44:32;;;;;;;1999.90;999.90;;;8.80;99.90;;;;;;5031638;28;20169;-74
2023/12/27 09:47:00;;;;;;;1999.90;999.90;;;8.80;99.90;;;;;;5034570;28;20173;-72
2023/12/27 09:49:27;;;;;;;1999.90;999.90;;;8.60;99.90;;;;;;5034572;28;20440;-73
2023/12/27 09:51:55;;;;;;;1999.90;999.90;;;8.80;99.90;;;;;;5030290;28;20486;-72
2023/12/27 09:54:21;;;;;;;1999.90;999.90;;;9.00;99.90;;;;;;5028229;28;20489;-72
2023/12/27 09:56:47;;;;;;;1999.90;999.90;;;9.00;99.90;;;;;;5026087;28;20456;-72
2023/12/27 09:59:22;;;;;;;1999.90;999.90;;;8.90;99.90;;;;;;5034435;28;20247;-72
2023/12/27 10:01:52;;;;;;;1999.90;999.90;;;9.00;99.90;;;;;;5033992;28;20431;-71
2023/12/27 10:04:29;;;;;;;1999.90;999.90;;;9.20;99.90;;;;;;5034586;28;20401;-72
2023/12/27 10:06:57;;;;;;;1999.90;999.90;;;9.10;99.90;;;;;;5034243;28;20404;-72
2023/12/27 10:09:23;;;;;;;1999.90;999.90;;;9.10;99.90;;;;;;5034671;28;20527;-74
2023/12/27 10:11:49;;;;;;;1999.90;999.90;;;9.10;99.90;;;;;;5034178;28;20808;-72
2023/12/27 10:14:17;;;;;;;1999.90;999.90;;;9.30;99.90;;;;;;5034395;28;20408;-73
2023/12/27 10:16:42;;;;;;;1999.90;999.90;;;9.30;99.90;;;;;;5034662;28;20205;-73
2023/12/27 10:19:38;;;;;;;1999.90;999.90;;;9.30;99.90;;;;;;5034740;28;20504;-71
2023/12/27 10:22:03;;;;;;;1999.90;999.90;;;9.40;99.90;;;;;;5033172;28;20273;-71
2023/12/27 10:24:32;;;;;;;1999.90;999.90;;;9.40;99.90;;;;;;5019901;28;20490;-71
2023/12/27 10:26:58;;;;;;;1999.90;999.90;;;9.50;99.90;;;;;;5013275;28;20502;-72
2023/12/27 10:29:24;;;;;;;1999.90;999.90;;;9.60;99.90;;;;;;5013988;28;20421;-72
2023/12/27 10:31:50;;;;;;;1999.90;999.90;;;9.70;99.90;;;;;;5013282;28;20206;-72
2023/12/27 10:34:15;;;;;;;1999.90;999.90;;;9.80;99.90;;;;;;5013771;28;20484;-72
2023/12/27 10:36:42;;;;;;;1999.90;999.90;;;9.80;99.90;;;;;;5013857;28;20456;-71
2023/12/27 10:39:09;;;;;;;1999.90;999.90;;;9.80;99.90;;;;;;5014307;28;20648;-71
2023/12/27 10:41:37;;;;;;;1999.90;999.90;;;9.80;99.90;;;;;;5013586;28;20425;-71
2023/12/27 10:44:04;;;;;;;1999.90;999.90;;;9.90;99.90;;;;;;5012071;28;20429;-73
2023/12/27 10:46:31;;;;;;;1999.90;999.90;;;9.90;99.90;;;;;;5011643;28;20433;-73
2023/12/27 10:49:03;;;;;;;1999.90;999.90;;;10.00;99.90;;;;;;5013974;28;20407;-72
2023/12/27 10:51:29;;;;;;;1999.90;999.90;;;10.00;99.90;;;;;;5012551;28;20488;-76
2023/12/27 10:53:59;;;;;;;1999.90;999.90;;;10.00;99.90;;;;;;5013783;28;20403;-72
2023/12/27 10:56:26;;;;;;;1999.90;999.90;;;10.00;99.90;;;;;;5013602;28;20448;-73
2023/12/27 10:58:52;;;;;;;1999.90;999.90;;;10.00;99.90;;;;;;5028244;28;20409;-72
2023/12/27 11:01:19;;;;;;;1999.90;999.90;;;10.00;99.90;;;;;;5019475;28;21013;-72
2023/12/27 11:03:49;;;;;;;1999.90;999.90;;;10.00;99.90;;;;;;5019061;28;20410;-73
2023/12/27 11:06:17;;;;;;;1999.90;999.90;;;10.00;99.90;;;;;;5032613;28;20408;-73
2023/12/27 11:08:45;;;;;;;1999.90;999.90;;;10.00;99.90;;;;;;5033724;28;20916;-71
2023/12/27 11:11:13;;;;;;;1999.90;999.90;;;10.00;99.90;;;;;;5032736;28;20425;-71
2023/12/27 11:13:40;;;;;;;1999.90;999.90;;;10.00;99.90;;;;;;5033104;28;20469;-71
2023/12/27 11:16:07;;;;;;;1999.90;999.90;;;10.20;99.90;;;;;;5033223;28;20460;-74
2023/12/27 11:18:35;;;;;;;1999.90;999.90;;;10.10;99.90;;;;;;5033481;28;20428;-72
2023/12/27 11:21:01;;;;;;;1999.90;999.90;;;10.20;99.90;;;;;;5032661;28;20775;-71
2023/12/27 11:23:27;;;;;;;1999.90;999.90;;;10.10;99.90;;;;;;5033365;28;20444;-71
2023/12/27 11:25:58;;;;;;;1999.90;999.90;;;10.10;99.90;;;;;;5032956;28;20767;-71
2023/12/27 11:28:25;;;;;;;1999.90;999.90;;;10.10;99.90;;;;;;5032850;28;20405;-71
2023/12/27 11:30:51;;;;;;;1999.90;999.90;;;10.00;99.90;;;;;;5032068;28;20456;-71
2023/12/27 11:33:23;;;;;;;1999.90;999.90;;;10.20;99.90;;;;;;5030768;28;20440;-71
2023/12/27 11:35:51;;;;;;;1999.90;999.90;;;10.30;99.90;;;;;;5032524;28;20257;-71
2023/12/27 11:38:21;;;;;;;1999.90;999.90;;;10.30;99.90;;;;;;5031766;28;20418;-71
2023/12/27 11:40:48;;;;;;;1999.90;999.90;;;10.10;99.90;;;;;;5032720;28;20407;-72
2023/12/27 11:43:25;;;;;;;1999.90;999.90;;;10.30;99.90;;;;;;5032173;28;20418;-71
2023/12/27 11:46:01;;;;;;;1999.90;999.90;;;10.30;99.90;;;;;;5031623;28;20417;-71
2023/12/27 11:48:31;;;;;;;1999.90;999.90;;;10.40;99.90;;;;;;5027226;28;20784;-72
2023/12/27 11:50:57;;;;;;;1999.90;999.90;;;10.50;99.90;;;;;;5032098;28;20537;-72
2023/12/27 11:53:29;;;;;;;1999.90;999.90;;;10.50;99.90;;;;;;5032712;28;20900;-71
2023/12/27 11:56:04;;;;;;;1999.90;999.90;;;10.60;99.90;;;;;;5032386;28;20514;-71
2023/12/27 11:58:38;;;;;;;1999.90;999.90;;;10.70;99.90;;;;;;5032464;28;20401;-72
2023/12/27 12:01:24;;;;;;;1999.90;999.90;;;10.80;99.90;;;;;;5032108;28;20443;-71
2023/12/27 12:04:07;;;;;;;1999.90;999.90;;;10.90;99.90;;;;;;5031567;28;20456;-71
2023/12/27 12:06:54;;;;;;;1999.90;999.90;;;11.00;99.90;;;;;;5031988;28;20428;-75
2023/12/27 12:09:36;;;;;;;1999.90;999.90;;;11.10;99.90;;;;;;5031690;28;20908;-71
2023/12/27 12:12:11;;;;;;;1999.90;999.90;;;11.20;99.90;;;;;;5030952;28;20429;-71
2023/12/27 12:14:39;;;;;;;1999.90;999.90;;;11.30;99.90;;;;;;5031731;28;20402;-71
2023/12/27 12:17:07;;;;;;;1999.90;999.90;;;11.30;97.80;;;;;;5032583;28;20967;-71
2023/12/27 12:19:35;;;;;;;1999.90;999.90;;;11.40;99.90;;;;;;5032167;28;20434;-71
2023/12/27 12:22:01;;;;;;;1999.90;999.90;;;11.40;99.90;;;;;;5030849;28;20517;-70